createdAt,value
2023-02-06T00:01:12.186Z,-1.40
2023-02-06T00:06:14.825Z,-1.50
2023-02-06T00:11:16.978Z,-1.40
2023-02-06T00:16:19.949Z,-1.40
2023-02-06T00:21:25.728Z,-1.40
2023-02-06T00:26:27.984Z,-1.30
2023-02-06T00:31:30.127Z,-1.30
2023-02-06T00:36:33.260Z,-1.30
2023-02-06T00:41:34.984Z,-1.20
2023-02-06T00:46:36.753Z,-1.20
2023-02-06T00:51:39.540Z,-1.20
2023-02-06T00:56:41.298Z,-1.10
2023-02-06T01:01:43.049Z,-1.20
2023-02-06T01:06:44.832Z,-1.20
2023-02-06T01:11:46.596Z,-1.20
2023-02-06T01:16:48.397Z,-1.10
2023-02-06T01:21:50.091Z,-1.20
2023-02-06T01:26:51.788Z,-1.10
2023-02-06T01:31:53.734Z,-1.00
2023-02-06T01:36:55.489Z,-1.00
2023-02-06T01:41:57.266Z,-1.00
2023-02-06T01:46:59.457Z,-1.00
2023-02-06T01:52:18.349Z,-1.00
2023-02-06T01:57:20.951Z,-0.90
2023-02-06T02:02:26.900Z,-0.90
2023-02-06T02:07:44.130Z,-0.90
2023-02-06T02:12:45.977Z,-0.80
2023-02-06T02:17:54.953Z,-0.70
2023-02-06T02:23:21.616Z,-0.70
2023-02-06T02:28:57.185Z,-0.70
2023-02-06T02:34:17.624Z,-0.70
2023-02-06T02:39:31.262Z,-0.70
2023-02-06T02:44:47.644Z,-0.70
2023-02-06T02:49:50.223Z,-0.70
2023-02-06T02:54:52.012Z,-0.70
2023-02-06T02:59:55.513Z,-0.70
2023-02-06T03:05:11.290Z,-0.70
2023-02-06T03:10:39.828Z,-0.70
2023-02-06T03:15:53.470Z,-0.70
2023-02-06T03:20:55.525Z,-0.60
2023-02-06T03:26:02.558Z,-0.70
2023-02-06T03:31:08.260Z,-0.70
2023-02-06T03:36:17.167Z,-0.70
2023-02-06T03:41:23.943Z,-0.70
2023-02-06T03:46:27.936Z,-0.70
2023-02-06T03:51:34.635Z,-0.60
2023-02-06T03:56:48.579Z,-0.60
2023-02-06T04:02:03.015Z,-0.50
2023-02-06T04:07:12.780Z,-0.60
2023-02-06T04:12:15.551Z,-0.60
2023-02-06T04:17:32.591Z,-0.60
2023-02-06T04:22:40.115Z,-0.50
2023-02-06T04:27:41.897Z,-0.40
2023-02-06T04:32:43.718Z,-0.40
2023-02-06T04:37:45.561Z,-0.50
2023-02-06T04:42:47.350Z,-0.60
2023-02-06T04:47:50.218Z,-0.80
2023-02-06T04:52:51.917Z,-1.10
2023-02-06T04:57:53.760Z,-1.10
2023-02-06T05:02:55.489Z,-1.20
2023-02-06T05:07:57.225Z,-1.40
2023-02-06T05:12:58.952Z,-1.60
2023-02-06T05:18:00.640Z,-1.70
2023-02-06T05:23:02.332Z,-1.80
2023-02-06T05:28:06.651Z,-1.90
2023-02-06T05:33:08.507Z,-2.00
2023-02-06T05:38:10.559Z,-2.10
2023-02-06T05:43:12.506Z,-2.10
2023-02-06T05:48:14.366Z,-2.20
2023-02-06T05:53:17.420Z,-2.30
2023-02-06T05:58:19.291Z,-2.40
2023-02-06T06:03:21.076Z,-2.40
2023-02-06T06:08:22.814Z,-2.40
2023-02-06T06:13:24.745Z,-2.40
2023-02-06T06:18:27.225Z,-2.30
2023-02-06T06:23:29.044Z,-2.10
2023-02-06T06:28:30.809Z,-2.10
2023-02-06T06:33:33.149Z,-1.90
2023-02-06T06:38:35.481Z,-1.70
2023-02-06T06:43:37.642Z,-1.60
2023-02-06T06:48:40.285Z,-1.30
2023-02-06T06:53:42.145Z,-0.90
2023-02-06T06:58:43.909Z,-0.60
2023-02-06T07:03:48.133Z,-0.40
2023-02-06T07:08:49.868Z,-0.20
2023-02-06T07:13:51.603Z,-0.10
2023-02-06T07:18:53.342Z,0.00
2023-02-06T07:23:55.392Z,0.10
2023-02-06T07:28:57.085Z,0.10
2023-02-06T07:34:00.041Z,0.20
2023-02-06T07:39:05.088Z,0.30
2023-02-06T07:44:07.057Z,0.50
2023-02-06T07:49:08.752Z,0.60
2023-02-06T07:54:11.958Z,0.70
2023-02-06T07:59:13.654Z,0.90
2023-02-06T08:04:15.391Z,1.00
2023-02-06T08:09:17.509Z,1.20
2023-02-06T08:14:19.281Z,1.30
2023-02-06T08:19:21.251Z,1.40
2023-02-06T08:24:23.165Z,1.40
2023-02-06T08:29:25.839Z,1.40
2023-02-06T08:34:27.551Z,1.50
2023-02-06T08:39:29.604Z,1.70
2023-02-06T08:44:31.609Z,1.90
2023-02-06T08:49:33.350Z,2.10
2023-02-06T08:54:36.905Z,2.20
2023-02-06T08:59:41.598Z,2.20
2023-02-06T09:04:43.376Z,2.20
2023-02-06T09:09:45.313Z,2.30
2023-02-06T09:14:47.128Z,2.30
2023-02-06T09:19:48.988Z,2.30
2023-02-06T09:24:50.797Z,2.40
2023-02-06T09:29:52.672Z,2.60
2023-02-06T09:34:54.400Z,2.60
2023-02-06T09:39:56.457Z,2.70
2023-02-06T09:45:07.877Z,2.90
2023-02-06T09:50:31.140Z,2.80
2023-02-06T09:55:52.187Z,2.80
2023-02-06T10:01:17.480Z,2.70
2023-02-06T10:06:27.678Z,2.70
2023-02-06T10:11:41.255Z,2.80
2023-02-06T10:16:48.339Z,2.80
2023-02-06T10:22:03.068Z,2.80
2023-02-06T10:27:11.519Z,2.70
2023-02-06T10:32:57.854Z,2.60
2023-02-06T10:38:33.556Z,2.60
2023-02-06T10:43:50.832Z,2.60
2023-02-06T10:49:02.746Z,2.60
2023-02-06T10:54:12.007Z,2.70
2023-02-06T10:59:34.741Z,2.80
2023-02-06T11:04:40.481Z,2.70
2023-02-06T11:09:42.418Z,2.80
2023-02-06T11:14:44.267Z,2.80
2023-02-06T11:19:48.560Z,2.80
2023-02-06T11:25:04.473Z,2.90
2023-02-06T11:30:31.983Z,2.90
2023-02-06T11:35:47.472Z,2.90
2023-02-06T11:41:01.264Z,2.80
2023-02-06T11:46:26.072Z,2.70
2023-02-06T11:51:47.146Z,2.80
2023-02-06T11:56:57.457Z,2.80
2023-02-06T12:02:01.540Z,2.80
2023-02-06T12:07:18.717Z,2.70
2023-02-06T12:12:33.221Z,2.80
2023-02-06T12:17:41.420Z,2.90
2023-02-06T12:23:08.220Z,2.90
2023-02-06T12:28:21.193Z,2.90
2023-02-06T12:33:36.420Z,2.90
2023-02-06T12:38:49.734Z,2.80
2023-02-06T12:43:57.609Z,2.60
2023-02-06T12:49:04.721Z,2.70
2023-02-06T12:54:25.114Z,2.80
2023-02-06T12:59:58.605Z,2.70
2023-02-06T13:05:05.703Z,2.70
2023-02-06T13:10:08.329Z,2.70
2023-02-06T13:15:22.452Z,2.70
2023-02-06T13:20:26.186Z,2.60
2023-02-06T13:25:30.942Z,2.60
2023-02-06T13:30:45.409Z,2.50
2023-02-06T13:36:06.272Z,2.60
2023-02-06T13:41:16.635Z,2.60
2023-02-06T13:46:22.049Z,2.60
2023-02-06T13:51:50.251Z,2.60
2023-02-06T13:57:15.722Z,2.70
2023-02-06T14:02:39.236Z,2.60
2023-02-06T14:08:01.938Z,2.50
2023-02-06T14:13:03.668Z,2.40
2023-02-06T14:18:27.043Z,2.50
2023-02-06T14:23:47.936Z,2.40
2023-02-06T14:29:17.446Z,2.40
2023-02-06T14:34:49.386Z,2.40
2023-02-06T14:39:56.914Z,2.40
2023-02-06T14:45:03.248Z,2.40
2023-02-06T14:50:06.284Z,2.30
2023-02-06T14:55:36.656Z,2.30
2023-02-06T15:00:38.812Z,2.30
2023-02-06T15:05:40.832Z,2.30
2023-02-06T15:10:42.638Z,2.30
2023-02-06T15:15:53.592Z,2.30
2023-02-06T15:20:59.003Z,2.30
2023-02-06T15:26:27.606Z,2.20
2023-02-06T15:31:30.597Z,2.20
2023-02-06T15:36:38.042Z,2.20
2023-02-06T15:41:43.150Z,2.20
2023-02-06T15:46:46.406Z,2.20
2023-02-06T15:51:52.606Z,2.20
2023-02-06T15:57:21.587Z,2.20
2023-02-06T16:02:32.007Z,2.20
2023-02-06T16:07:38.204Z,2.10
2023-02-06T16:12:42.645Z,2.10
2023-02-06T16:17:44.526Z,2.10
2023-02-06T16:22:46.500Z,2.20
2023-02-06T16:27:51.118Z,2.10
2023-02-06T16:32:55.307Z,2.10
2023-02-06T16:37:57.448Z,2.00
2023-02-06T16:43:00.216Z,2.00
2023-02-06T16:48:01.966Z,1.90
2023-02-06T16:53:03.790Z,1.90
2023-02-06T16:58:07.517Z,1.80
2023-02-06T17:03:13.077Z,1.60
2023-02-06T17:08:21.722Z,1.50
2023-02-06T17:13:24.777Z,1.30
2023-02-06T17:18:26.670Z,1.10
2023-02-06T17:23:28.491Z,1.00
2023-02-06T17:28:30.775Z,0.90
2023-02-06T17:33:32.630Z,0.80
2023-02-06T17:38:34.763Z,0.80
2023-02-06T17:43:37.454Z,0.80
2023-02-06T17:48:42.664Z,0.80
2023-02-06T17:53:44.565Z,0.80
2023-02-06T17:58:46.704Z,0.80
2023-02-06T18:03:50.195Z,0.90
2023-02-06T18:08:52.011Z,0.90
2023-02-06T18:13:54.293Z,1.10
2023-02-06T18:18:56.593Z,1.10
2023-02-06T18:23:59.175Z,1.10
2023-02-06T18:29:05.065Z,1.10
2023-02-06T18:34:08.386Z,1.30
2023-02-06T18:39:11.298Z,1.40
2023-02-06T18:44:13.361Z,1.40
2023-02-06T18:49:15.105Z,1.50
2023-02-06T18:54:16.816Z,1.50
2023-02-06T18:59:18.838Z,1.60
2023-02-06T19:04:21.883Z,1.60
2023-02-06T19:09:23.835Z,1.70
2023-02-06T19:14:25.639Z,1.60
2023-02-06T19:19:27.708Z,1.60
2023-02-06T19:24:31.299Z,1.50
2023-02-06T19:29:36.219Z,1.50
2023-02-06T19:34:39.906Z,1.50
2023-02-06T19:39:43.208Z,1.40
2023-02-06T19:44:45.753Z,1.50
2023-02-06T19:49:51.462Z,1.60
2023-02-06T19:54:53.366Z,1.50
2023-02-06T19:59:55.357Z,1.40
2023-02-06T20:04:57.133Z,1.40
2023-02-06T20:09:59.041Z,1.50
2023-02-06T20:15:00.874Z,1.60
2023-02-06T20:20:02.781Z,1.60
2023-02-06T20:25:04.809Z,1.60
2023-02-06T20:30:07.223Z,1.60
2023-02-06T20:35:09.070Z,1.50
2023-02-06T20:40:10.984Z,1.50
2023-02-06T20:45:13.035Z,1.50
2023-02-06T20:50:15.783Z,1.50
2023-02-06T20:55:17.614Z,1.60
2023-02-06T21:00:19.627Z,1.50
2023-02-06T21:05:21.522Z,1.40
2023-02-06T21:10:23.477Z,1.40
2023-02-06T21:15:25.257Z,1.50
2023-02-06T21:20:27.034Z,1.50
2023-02-06T21:25:28.737Z,1.40
2023-02-06T21:30:31.441Z,1.40
2023-02-06T21:35:33.859Z,1.40
2023-02-06T21:40:37.223Z,1.40
2023-02-06T21:45:39.759Z,1.40
2023-02-06T21:50:41.979Z,1.50
2023-02-06T21:55:44.644Z,1.50
2023-02-06T22:00:47.896Z,1.50
2023-02-06T22:05:49.612Z,1.40
2023-02-06T22:10:51.393Z,1.50
2023-02-06T22:15:53.183Z,1.60
2023-02-06T22:21:10.490Z,1.50
2023-02-06T22:26:15.919Z,1.50
2023-02-06T22:31:24.647Z,1.40
2023-02-06T22:36:28.722Z,1.40
2023-02-06T22:41:30.822Z,1.40
2023-02-06T22:46:35.508Z,1.40
2023-02-06T22:51:38.477Z,1.40
2023-02-06T22:56:41.173Z,1.30
2023-02-06T23:01:54.969Z,1.20
2023-02-06T23:06:57.389Z,1.20
2023-02-06T23:11:59.802Z,1.00
2023-02-06T23:17:01.881Z,1.00
2023-02-06T23:22:03.754Z,1.00
2023-02-06T23:27:05.474Z,1.00
2023-02-06T23:32:07.227Z,0.90
2023-02-06T23:37:09.202Z,1.00
2023-02-06T23:42:11.254Z,1.10
2023-02-06T23:47:13.001Z,1.20
2023-02-06T23:52:14.855Z,1.20
2023-02-06T23:57:16.617Z,1.20
